NCAR-RAP Real-Time Weather Data

Output produced by METARs form (17 October 2018  15:35 UTC)
found at http://weather.rap.ucar.edu/surface/
 
RJEB 170700Z 27009KT 9999 FEW030 SCT060 BKN070 11/03 Q1010
RJEB 170600Z 26010KT 9999 FEW030 SCT040 BKN060 12/03 Q1010
RJEB 170500Z 29009KT 9999 FEW030 SCT040 BKN070 12/03 Q1009
RJEB 170400Z 26012KT 230V300 9999 FEW030 SCT040 BKN070 12/02 Q1009
RJEB 170300Z 27007KT 230V300 9999 FEW030 SCT040 BKN060 12/03 Q1009
RJEB 170200Z 23011KT 190V270 9999 FEW030 SCT040 BKN070 12/02 Q1009
RJEB 170100Z 25011KT 9999 FEW030 BKN040 12/02 Q1009
RJEB 170000Z 24009KT 210V270 9999 FEW030 SCT040 11/02 Q1010
RJEB 160700Z 15006KT 9999 FEW040 BKN060 13/06 Q1010
RJEB 160600Z 01003KT 320V070 9999 FEW040 15/03 Q1010
RJEB 160500Z 28005KT 240V320 9999 FEW030 15/03 Q1010
RJEB 160400Z 30011KT 9999 FEW030 15/05 Q1010
RJEB 160300Z 25007KT 9999 FEW030 BKN090 15/05 Q1011
RJEB 160200Z 25010KT 210V270 9999 FEW030 BKN090 16/06 Q1011
RJEB 160100Z 36006KT 320V040 9999 FEW020 SCT030 15/09 Q1012
RJEB 160000Z 24008KT 220V280 9999 FEW030 15/07 Q1013
RJEB 150700Z 16003KT 110V210 9999 FEW030 SCT080 15/11 Q1014
RJEB 150600Z 10006KT 9999 FEW040 17/11 Q1014
RJEB 150500Z 09008KT 9999 FEW030 16/11 Q1014
RJEB 150400Z 10008KT 9999 FEW030 SCT050 17/10 Q1015